Kendall Park, New Jersey
Current Conditions -  °F | °C
As of 5:53 PM on Thursday 18 Dec 2014 (Local Time) from KSMQ Reporting Station
Overcast Overcast  
Wind Chill: 34°   Ceiling: 3900
Heat Index: 39°   Visibility: 10mi
Dew Point: 25°   Wind: 7mph
Humidity: 57%   Direction: 310°NW
Pressure: 29.97"   Gusts: NA
Location:  40.44°N, 74.54°W
Report Text: KSMQ 182253Z AUTO 31006KT 10SM OVC039 04/M04 A2997 RMK AO2 SLP151 T00391039
Loading
Personal Weather Stations






























Interactive Weather Map New forecast layout! Learn more

10-Day Weather Forecast

Advertisements
Track Severe Weather on mobile